METAR Data
IDs: Format: Raw Decoded Include TAF

Data at: 1054 UTC 18 Jan 2022

KD55 181035Z AUTO 13014KT 2 1/2SM BR OVC003 M06/M06 A2937 RMK AO2
KD55 181015Z AUTO 12013KT 2 1/2SM BR OVC003 M06/M06 A2940 RMK AO2
KD55 180955Z AUTO 12015KT 2SM BR OVC003 M06/M06 A2939 RMK AO2
KD55 180935Z AUTO 13017KT 2SM BR M07/M07 A2940 RMK AO2
KD55 180915Z AUTO 13016KT 3SM BR M07/M07 A2942 RMK AO2
KD55 180855Z AUTO 12015KT 3SM BR M07/M07 A2944 RMK AO2
KD55 180835Z AUTO 12014KT 2 1/2SM BR M07/M07 A2944 RMK AO2
KD55 180815Z AUTO 11017KT 2 1/2SM BR OVC002 M08/M08 A2945 RMK AO2
KD55 180755Z AUTO 12019KT 1 3/4SM BR OVC003 M08/M07 A2947 RMK AO2
KD55 180735Z AUTO 11017KT 2SM BR OVC003 M08/M07 A2949 RMK AO2
KD55 180715Z AUTO 12018KT 2SM BR M08/M08 A2951 RMK AO2
KD55 180655Z AUTO 11016KT 2 1/2SM -SN M08/M08 A2952 RMK AO2
KD55 180635Z AUTO 11014KT 3SM BR M08/M08 A2955 RMK AO2
KD55 180615Z AUTO 11014KT 6SM BR M09/M08 A2956 RMK AO2
KD55 180555Z AUTO 11014KT 9SM M09/M09 A2958 RMK AO2
KD55 180535Z AUTO 12014KT 8SM OVC001 M09/M09 A2959 RMK AO2
KD55 180515Z AUTO 11012KT 6SM BR OVC001 M09/M09 A2959 RMK AO2
KD55 180455Z AUTO 10013KT 1 1/2SM -SN OVC001 M10/M09 A2960 RMK AO2
KD55 180435Z AUTO 11014KT 3SM -SN BKN002 OVC005 M10/M10 A2962 RMK AO2
KD55 180415Z AUTO 10013KT 1 3/4SM -SN M10/M10 A2963 RMK AO2
KD55 180355Z AUTO 11014KT 6SM BR M10/M10 A2965 RMK AO2
KD55 180335Z AUTO 11013KT 5SM BR M10/M10 A2966 RMK AO2
KD55 180315Z AUTO 10012KT 3SM -SN M10/M10 A2966 RMK AO2
KD55 180255Z AUTO 10012KT 5SM BR OVC001 M11/M10 A2968 RMK AO2
KD55 180235Z AUTO 09010KT 5SM BR OVC001 M11/M11 A2970 RMK AO2
KD55 180215Z AUTO 09016KT 8SM BKN001 BKN016 OVC065 M11/M11 A2969 RMK AO2
KD55 180155Z AUTO 09012KT 10SM M11/M11 A2972 RMK AO2
KD55 180135Z AUTO 09014KT 10SM M11/M11 A2972 RMK AO2
KD55 180115Z AUTO 09010G17KT 10SM M11/M11 A2973 RMK AO2
KD55 180055Z AUTO 08010G16KT 10SM M11/M11 A2973 RMK AO2
KD55 180035Z AUTO 08014KT 7SM BKN001 M11/M11 A2972 RMK AO2
KD55 180015Z AUTO 08013KT 6SM BR SCT001 M11/M10 A2974 RMK AO2
KD55 172355Z AUTO 07012KT 5SM BR BKN002 BKN120 M10/M10 A2975 RMK AO2
KD55 172335Z AUTO 07013KT 9SM M10/M10 A2975 RMK AO2
KD55 172315Z AUTO 07011KT 10SM -SN M10/M10 A2976 RMK AO2
KD55 172255Z AUTO 06011KT 9SM M10/M10 A2977 RMK AO2
KD55 172235Z AUTO 06010KT 9SM M10/M09 A2977 RMK AO2
KD55 172215Z AUTO 07012KT 10SM FEW001 OVC015 M09/M09 A2976 RMK AO2
KD55 172155Z AUTO 07013KT 10SM SCT001 OVC014 M09/M09 A2976 RMK AO2
KD55 172135Z AUTO 07004G11KT 10SM BKN001 OVC014 M09/M09 A2979 RMK AO2
KD55 172115Z AUTO 07010KT 10SM M09/M09 A2978 RMK AO2
KD55 172055Z AUTO 06012KT 8SM M09/M09 A2977 RMK AO2
KD55 172035Z AUTO 06012KT 5SM BR M09/M09 A2977 RMK AO2
KD55 172015Z AUTO 07013KT 4SM BR M09/M09 A2977 RMK AO2
KD55 171955Z AUTO 06010KT 6SM BR BKN002 OVC014 M09/M09 A2978 RMK AO2
KD55 171935Z AUTO 06012KT 9SM BKN001 OVC014 M09/M08 A2979 RMK AO2
KD55 171915Z AUTO 06010KT 9SM OVC001 M08/M08 A2978 RMK AO2
KD55 171855Z AUTO 05013KT 9SM BKN002 OVC015 M08/M08 A2981 RMK AO2
KD55 171835Z AUTO 05013G18KT 10SM M08/M08 A2979 RMK AO2
KD55 171815Z AUTO 05011KT 9SM M07/M07 A2979 RMK AO2
KD55 171755Z AUTO 05012KT 10SM M07/M07 A2980 RMK AO2
KD55 171735Z AUTO 06013KT 10SM M07/M07 A2980 RMK AO2
KD55 171715Z AUTO 05015KT 10SM FEW003 FEW006 OVC019 M07/M07 A2980 RMK AO2
KD55 171655Z AUTO 05014KT 6SM BR BKN005 OVC009 M07/M07 A2980 RMK AO2
KD55 171635Z AUTO 06014KT 5SM BR BKN003 OVC008 M07/M06 A2980 RMK AO2
KD55 171615Z AUTO 05013KT 1 3/4SM BR M06/M06 A2979 RMK AO2 VIS 1V3
KD55 171555Z AUTO 05013KT 4SM BR M05/M05 A2978 RMK AO2
KD55 171535Z AUTO 04010KT 10SM M05/M05 A2978 RMK AO2
KD55 171515Z AUTO 04011KT 10SM M05/M05 A2977 RMK AO2
KD55 171455Z AUTO 05009KT 10SM M04/M04 A2976 RMK AO2
KD55 171435Z AUTO 03006KT 10SM SCT006 OVC041 M04/M04 A2976 RMK AO2
KD55 171415Z AUTO 03005KT 10SM OVC005 M04/M04 A2976 RMK AO2
KD55 171355Z AUTO 36008KT 10SM -UP OVC007 M04/M04 A2977 RMK AO2
KD55 171335Z AUTO 34005KT 10SM BKN007 BKN017 OVC043 M04/M04 A2978 RMK AO2
KD55 171315Z AUTO 35006KT 10SM FEW005 SCT022 OVC047 M04/M04 A2977 RMK AO2
KD55 171255Z AUTO 35007KT 10SM BKN006 BKN023 BKN031 M04/M04 A2977 RMK AO2
KD55 171235Z AUTO 34008KT 9SM SCT005 BKN025 OVC046 M05/M05 A2976 RMK AO2
KD55 171215Z AUTO 32007KT 7SM -UP FEW017 FEW034 OVC045 M05/M04 A2976 RMK AO2
KD55 171155Z AUTO 32008KT 10SM M04/M04 A2976 RMK AO2
KD55 171135Z AUTO 31010KT 10SM M04/M04 A2976 RMK AO2
KD55 171115Z AUTO 30007KT 10SM M04/M04 A2975 RMK AO2
KD55 171055Z AUTO 28007KT 10SM M04/M04 A2975 RMK AO2
KD55 171035Z AUTO 27009KT 10SM M04/M04 A2975 RMK AO2
KD55 171015Z AUTO 27008KT 10SM M04/M04 A2975 RMK AO2
KD55 170955Z AUTO 26009KT 10SM BKN046 M04/M04 A2976 RMK AO2
KD55 170935Z AUTO 26011KT 10SM FEW047 M04/M04 A2975 RMK AO2
KD55 170915Z AUTO 27011KT 10SM SCT050 M04/M04 A2975 RMK AO2
KD55 170855Z AUTO 27011KT 10SM OVC050 M04/M04 A2976 RMK AO2
KD55 170835Z AUTO 27014KT 10SM OVC050 M03/M03 A2976 RMK AO2
KD55 170815Z AUTO 27016KT 10SM M03/M03 A2976 RMK AO2
KD55 170755Z AUTO 26014KT 10SM M03/M02 A2976 RMK AO2
KD55 170735Z AUTO 25015KT 10SM M02/M02 A2977 RMK AO2
KD55 170715Z AUTO 25015KT 10SM M02/M02 A2977 RMK AO2
KD55 170655Z AUTO 25014KT 10SM M02/M02 A2977 RMK AO2
KD55 170635Z AUTO 24013KT 10SM M02/M02 A2978 RMK AO2
KD55 170615Z AUTO 24013KT 10SM M02/M02 A2979 RMK AO2
KD55 170555Z AUTO 25011KT 10SM M02/M02 A2980 RMK AO2
KD55 170535Z AUTO 22011KT 10SM M03/M02 A2979 RMK AO2
KD55 170515Z AUTO 23010KT 10SM M03/M03 A2980 RMK AO2
KD55 170455Z AUTO 23012KT 10SM M03/M03 A2981 RMK AO2
KD55 170435Z AUTO 23015KT 10SM M04/M03 A2981 RMK AO2
KD55 170415Z AUTO 22013KT 10SM SCT009 SCT020 BKN050 M05/M05 A2982 RMK AO2
KD55 170355Z AUTO 21012KT 10SM FEW050 M06/M05 A2982 RMK AO2
KD55 170335Z AUTO 22011KT 10SM CLR M06/M06 A2983 RMK AO2
KD55 170315Z AUTO 21010KT 10SM SCT023 M05/M05 A2984 RMK AO2
KD55 170255Z AUTO 23008KT 10SM M04/M04 A2985 RMK AO2
KD55 170235Z AUTO 24009KT 10SM M04/M03 A2987 RMK AO2
KD55 170215Z AUTO 25005KT 10SM M03/M03 A2987 RMK AO2
KD55 170155Z AUTO 27007KT 10SM M03/M03 A2987 RMK AO2
KD55 170135Z AUTO 27006KT 10SM M03/M03 A2987 RMK AO2
KD55 170115Z AUTO 27008KT 10SM M03/M03 A2987 RMK AO2
KD55 170055Z AUTO 29009KT 10SM M02/M02 A2987 RMK AO2
KD55 170035Z AUTO 27011KT 10SM M03/M03 A2988 RMK AO2
KD55 170015Z AUTO 26011KT 10SM M03/M03 A2989 RMK AO2
KD55 162355Z AUTO 23004KT 10SM M04/M04 A2989 RMK AO2
KD55 162335Z AUTO 27004KT 10SM M04/M04 A2990 RMK AO2
KD55 162315Z AUTO 29003KT 10SM M03/M03 A2990 RMK AO2
KD55 162255Z AUTO 00000KT 10SM M03/M03 A2989 RMK AO2